sensor_id;sensor_type;location;lat;lon;timestamp;pressure;altitude;pressure_sealevel;temperature;humidity
27805;BME280;15183;51.350;11.102;2022-11-22T00:00:38;98369.50;;;5.18;73.94
27805;BME280;15183;51.350;11.102;2022-11-22T00:03:05;98379.88;;;5.25;73.61
27805;BME280;15183;51.350;11.102;2022-11-22T00:05:31;98350.88;;;5.20;73.32
27805;BME280;15183;51.350;11.102;2022-11-22T00:07:58;98340.50;;;5.13;73.42
27805;BME280;15183;51.350;11.102;2022-11-22T00:10:24;98347.94;;;5.16;72.99
27805;BME280;15183;51.350;11.102;2022-11-22T00:12:51;98340.63;;;5.18;73.01
27805;BME280;15183;51.350;11.102;2022-11-22T00:15:17;98360.38;;;5.33;73.10
27805;BME280;15183;51.350;11.102;2022-11-22T00:17:43;98358.00;;;5.31;73.24
27805;BME280;15183;51.350;11.102;2022-11-22T00:20:10;98324.16;;;5.11;73.17
27805;BME280;15183;51.350;11.102;2022-11-22T00:22:37;98291.19;;;4.91;73.52
27805;BME280;15183;51.350;11.102;2022-11-22T00:25:04;98334.47;;;5.25;73.55
27805;BME280;15183;51.350;11.102;2022-11-22T00:27:31;98351.81;;;5.38;72.86
27805;BME280;15183;51.350;11.102;2022-11-22T00:30:05;98353.06;;;5.35;73.06
27805;BME280;15183;51.350;11.102;2022-11-22T00:32:33;98261.53;;;4.79;73.22
27805;BME280;15183;51.350;11.102;2022-11-22T00:34:59;98315.06;;;5.14;73.13
27805;BME280;15183;51.350;11.102;2022-11-22T00:37:26;98323.75;;;5.14;73.32
27805;BME280;15183;51.350;11.102;2022-11-22T00:39:52;98276.13;;;4.75;72.85
27805;BME280;15183;51.350;11.102;2022-11-22T00:42:18;98300.75;;;4.86;73.13
27805;BME280;15183;51.350;11.102;2022-11-22T00:44:45;98269.81;;;4.64;72.64
27805;BME280;15183;51.350;11.102;2022-11-22T00:47:11;98257.91;;;4.49;72.94
27805;BME280;15183;51.350;11.102;2022-11-22T00:49:38;98345.53;;;5.15;72.79
27805;BME280;15183;51.350;11.102;2022-11-22T00:52:05;98342.91;;;5.15;73.10
27805;BME280;15183;51.350;11.102;2022-11-22T00:54:31;98246.56;;;4.56;72.82
27805;BME280;15183;51.350;11.102;2022-11-22T00:56:58;98322.78;;;4.97;72.64
27805;BME280;15183;51.350;11.102;2022-11-22T00:59:24;98338.00;;;5.06;73.03
27805;BME280;15183;51.350;11.102;2022-11-22T01:01:51;98329.44;;;4.99;72.78
27805;BME280;15183;51.350;11.102;2022-11-22T01:04:17;98352.72;;;5.07;73.27
27805;BME280;15183;51.350;11.102;2022-11-22T01:06:44;98301.78;;;4.85;73.29
27805;BME280;15183;51.350;11.102;2022-11-22T01:09:18;98296.19;;;4.81;73.04
27805;BME280;15183;51.350;11.102;2022-11-22T01:11:45;98303.50;;;4.79;73.12
27805;BME280;15183;51.350;11.102;2022-11-22T01:14:13;98259.44;;;4.57;73.32
27805;BME280;15183;51.350;11.102;2022-11-22T01:16:39;98281.69;;;4.78;73.73
27805;BME280;15183;51.350;11.102;2022-11-22T01:19:06;98290.38;;;4.91;73.43
27805;BME280;15183;51.350;11.102;2022-11-22T01:21:32;98312.75;;;5.05;73.59
27805;BME280;15183;51.350;11.102;2022-11-22T01:23:59;98246.88;;;4.59;73.50
27805;BME280;15183;51.350;11.102;2022-11-22T01:26:26;98297.47;;;5.02;73.03
27805;BME280;15183;51.350;11.102;2022-11-22T01:28:52;98270.66;;;4.88;72.64
27805;BME280;15183;51.350;11.102;2022-11-22T01:31:19;98302.38;;;5.11;72.93
27805;BME280;15183;51.350;11.102;2022-11-22T01:33:45;98281.25;;;4.93;72.55
27805;BME280;15183;51.350;11.102;2022-11-22T01:36:12;98247.81;;;4.65;72.63
27805;BME280;15183;51.350;11.102;2022-11-22T01:38:38;98253.28;;;4.75;72.31
27805;BME280;15183;51.350;11.102;2022-11-22T01:41:05;98292.69;;;4.99;72.76
27805;BME280;15183;51.350;11.102;2022-11-22T01:43:31;98277.13;;;4.86;72.69
27805;BME280;15183;51.350;11.102;2022-11-22T01:53:49;98229.53;;;4.46;72.80
27805;BME280;15183;51.350;11.102;2022-11-22T01:56:18;98258.44;;;4.70;72.47
27805;BME280;15183;51.350;11.102;2022-11-22T01:58:52;98246.88;;;4.59;72.41
27805;BME280;15183;51.350;11.102;2022-11-22T02:01:20;98282.84;;;4.83;72.88
27805;BME280;15183;51.350;11.102;2022-11-22T02:03:49;98250.78;;;4.69;73.35
27805;BME280;15183;51.350;11.102;2022-11-22T02:06:17;98272.91;;;4.85;72.95
27805;BME280;15183;51.350;11.102;2022-11-22T02:09:04;98265.97;;;4.78;72.64
27805;BME280;15183;51.350;11.102;2022-11-22T02:11:35;98236.06;;;4.68;73.09
27805;BME280;15183;51.350;11.102;2022-11-22T02:14:04;98239.03;;;4.71;73.36
27805;BME280;15183;51.350;11.102;2022-11-22T02:16:34;98261.41;;;4.86;73.54
27805;BME280;15183;51.350;11.102;2022-11-22T02:19:01;98262.41;;;4.85;73.24
27805;BME280;15183;51.350;11.102;2022-11-22T02:21:28;98244.06;;;4.85;73.13
27805;BME280;15183;51.350;11.102;2022-11-22T02:23:59;98262.31;;;5.03;73.18
27805;BME280;15183;51.350;11.102;2022-11-22T02:26:29;98231.19;;;4.95;73.59
27805;BME280;15183;51.350;11.102;2022-11-22T02:29:01;98222.28;;;4.96;73.40
27805;BME280;15183;51.350;11.102;2022-11-22T02:31:42;98228.78;;;5.05;73.10
27805;BME280;15183;51.350;11.102;2022-11-22T02:34:11;98192.59;;;4.84;73.18
27805;BME280;15183;51.350;11.102;2022-11-22T02:36:43;98231.63;;;5.16;73.26
27805;BME280;15183;51.350;11.102;2022-11-22T02:39:13;98190.09;;;4.89;73.28
27805;BME280;15183;51.350;11.102;2022-11-22T02:41:41;98208.66;;;5.11;73.38
27805;BME280;15183;51.350;11.102;2022-11-22T02:44:09;98227.50;;;5.20;73.68
27805;BME280;15183;51.350;11.102;2022-11-22T02:46:52;98212.66;;;5.14;74.15
27805;BME280;15183;51.350;11.102;2022-11-22T02:49:22;98225.09;;;5.30;73.81
27805;BME280;15183;51.350;11.102;2022-11-22T02:51:50;98240.03;;;5.42;73.97
27805;BME280;15183;51.350;11.102;2022-11-22T02:54:17;98212.53;;;5.32;73.63
27805;BME280;15183;51.350;11.102;2022-11-22T02:56:44;98253.09;;;5.65;73.98
27805;BME280;15183;51.350;11.102;2022-11-22T02:59:10;98253.22;;;5.71;73.67
27805;BME280;15183;51.350;11.102;2022-11-22T03:01:36;98244.44;;;5.65;73.20
27805;BME280;15183;51.350;11.102;2022-11-22T03:04:03;98198.56;;;5.44;73.24
27805;BME280;15183;51.350;11.102;2022-11-22T03:06:30;98200.16;;;5.45;73.23
27805;BME280;15183;51.350;11.102;2022-11-22T03:08:56;98222.50;;;5.59;72.78
27805;BME280;15183;51.350;11.102;2022-11-22T03:11:23;98217.81;;;5.61;73.00
27805;BME280;15183;51.350;11.102;2022-11-22T03:13:50;98181.78;;;5.45;72.74
27805;BME280;15183;51.350;11.102;2022-11-22T03:16:17;98246.53;;;5.92;72.78
27805;BME280;15183;51.350;11.102;2022-11-22T03:18:43;98245.69;;;6.03;72.74
27805;BME280;15183;51.350;11.102;2022-11-22T03:21:09;98257.00;;;6.04;73.09
27805;BME280;15183;51.350;11.102;2022-11-22T03:23:36;98220.94;;;5.87;72.50
27805;BME280;15183;51.350;11.102;2022-11-22T03:26:08;98225.72;;;5.90;72.37
27805;BME280;15183;51.350;11.102;2022-11-22T03:28:35;98262.94;;;6.11;72.61
27805;BME280;15183;51.350;11.102;2022-11-22T03:31:05;98229.94;;;5.91;72.64
27805;BME280;15183;51.350;11.102;2022-11-22T03:33:33;98243.06;;;6.03;72.11
27805;BME280;15183;51.350;11.102;2022-11-22T03:36:00;98251.84;;;6.09;72.24
27805;BME280;15183;51.350;11.102;2022-11-22T03:38:26;98220.00;;;5.93;72.19
27805;BME280;15183;51.350;11.102;2022-11-22T03:40:52;98235.97;;;6.04;72.35
27805;BME280;15183;51.350;11.102;2022-11-22T03:43:19;98243.41;;;6.07;72.61
27805;BME280;15183;51.350;11.102;2022-11-22T03:45:47;98214.09;;;5.86;71.93
27805;BME280;15183;51.350;11.102;2022-11-22T03:48:14;98240.19;;;6.05;72.13
27805;BME280;15183;51.350;11.102;2022-11-22T03:50:40;98225.97;;;5.89;71.86
27805;BME280;15183;51.350;11.102;2022-11-22T03:53:07;98203.94;;;5.78;72.07
27805;BME280;15183;51.350;11.102;2022-11-22T03:55:34;98249.00;;;5.99;72.22
27805;BME280;15183;51.350;11.102;2022-11-22T03:58:00;98238.84;;;5.90;72.29
27805;BME280;15183;51.350;11.102;2022-11-22T04:00:27;98225.72;;;5.90;73.31
27805;BME280;15183;51.350;11.102;2022-11-22T04:02:53;98243.84;;;6.04;73.02
27805;BME280;15183;51.350;11.102;2022-11-22T04:05:20;98226.50;;;6.03;72.83
27805;BME280;15183;51.350;11.102;2022-11-22T04:07:46;98239.09;;;6.18;73.03
27805;BME280;15183;51.350;11.102;2022-11-22T04:10:14;98213.47;;;6.08;73.02
27805;BME280;15183;51.350;11.102;2022-11-22T04:12:40;98162.59;;;5.73;72.57
27805;BME280;15183;51.350;11.102;2022-11-22T04:15:07;98214.09;;;6.15;72.67
27805;BME280;15183;51.350;11.102;2022-11-22T04:17:39;98231.91;;;6.25;72.60
27805;BME280;15183;51.350;11.102;2022-11-22T04:20:29;98218.06;;;6.18;72.92
27805;BME280;15183;51.350;11.102;2022-11-22T04:23:19;98234.59;;;6.30;73.17
27805;BME280;15183;51.350;11.102;2022-11-22T04:25:52;98218.41;;;6.21;72.86
27805;BME280;15183;51.350;11.102;2022-11-22T04:28:22;98214.19;;;6.20;72.50
27805;BME280;15183;51.350;11.102;2022-11-22T04:30:50;98181.13;;;5.96;72.71
27805;BME280;15183;51.350;11.102;2022-11-22T04:33:35;98216.00;;;6.20;72.48
27805;BME280;15183;51.350;11.102;2022-11-22T04:36:02;98219.53;;;6.26;73.21
27805;BME280;15183;51.350;11.102;2022-11-22T04:38:28;98213.00;;;6.28;73.08
27805;BME280;15183;51.350;11.102;2022-11-22T04:40:55;98228.88;;;6.33;72.88
27805;BME280;15183;51.350;11.102;2022-11-22T04:43:24;98214.91;;;6.33;73.34
27805;BME280;15183;51.350;11.102;2022-11-22T04:46:10;98208.38;;;6.35;73.58
27805;BME280;15183;51.350;11.102;2022-11-22T04:48:37;98209.81;;;6.43;72.98
27805;BME280;15183;51.350;11.102;2022-11-22T04:51:05;98192.81;;;6.34;73.19
27805;BME280;15183;51.350;11.102;2022-11-22T04:53:50;98220.31;;;6.43;73.50
27805;BME280;15183;51.350;11.102;2022-11-22T04:56:17;98204.16;;;6.34;73.32
27805;BME280;15183;51.350;11.102;2022-11-22T04:58:43;98214.75;;;6.40;73.05
27805;BME280;15183;51.350;11.102;2022-11-22T05:01:10;98193.56;;;6.29;73.50
27805;BME280;15183;51.350;11.102;2022-11-22T05:03:36;98212.53;;;6.48;72.49
27805;BME280;15183;51.350;11.102;2022-11-22T05:06:04;98213.25;;;6.44;72.49
27805;BME280;15183;51.350;11.102;2022-11-22T05:08:31;98163.41;;;6.03;72.78
27805;BME280;15183;51.350;11.102;2022-11-22T05:10:57;98219.88;;;6.46;72.87
27805;BME280;15183;51.350;11.102;2022-11-22T05:13:30;98203.75;;;6.43;72.96
27805;BME280;15183;51.350;11.102;2022-11-22T05:15:57;98219.88;;;6.46;73.18
27805;BME280;15183;51.350;11.102;2022-11-22T05:18:25;98239.41;;;6.50;73.01
27805;BME280;15183;51.350;11.102;2022-11-22T05:20:52;98208.13;;;6.37;73.06
27805;BME280;15183;51.350;11.102;2022-11-22T05:23:19;98209.03;;;6.43;73.28
27805;BME280;15183;51.350;11.102;2022-11-22T05:26:06;98220.09;;;6.45;73.02
27805;BME280;15183;51.350;11.102;2022-11-22T05:28:34;98224.88;;;6.48;72.95
27805;BME280;15183;51.350;11.102;2022-11-22T05:31:14;98205.84;;;6.41;72.97
27805;BME280;15183;51.350;11.102;2022-11-22T05:33:51;98234.78;;;6.58;73.09
27805;BME280;15183;51.350;11.102;2022-11-22T05:36:19;98225.69;;;6.48;72.96
27805;BME280;15183;51.350;11.102;2022-11-22T05:38:46;98225.03;;;6.41;73.06
27805;BME280;15183;51.350;11.102;2022-11-22T05:41:14;98249.03;;;6.62;73.05
27805;BME280;15183;51.350;11.102;2022-11-22T05:43:42;98207.09;;;6.38;72.81
27805;BME280;15183;51.350;11.102;2022-11-22T05:46:11;98223.13;;;6.54;72.82
27805;BME280;15183;51.350;11.102;2022-11-22T05:48:40;98222.66;;;6.57;72.84
27805;BME280;15183;51.350;11.102;2022-11-22T05:51:10;98252.38;;;6.74;72.85
27805;BME280;15183;51.350;11.102;2022-11-22T05:53:38;98217.53;;;6.50;72.21
27805;BME280;15183;51.350;11.102;2022-11-22T05:56:19;98243.63;;;6.69;72.77
27805;BME280;15183;51.350;11.102;2022-11-22T05:58:46;98254.47;;;6.72;72.76
27805;BME280;15183;51.350;11.102;2022-11-22T06:01:19;98247.13;;;6.74;72.73
27805;BME280;15183;51.350;11.102;2022-11-22T06:03:46;98218.19;;;6.57;72.70
27805;BME280;15183;51.350;11.102;2022-11-22T06:06:14;98230.78;;;6.72;72.79
27805;BME280;15183;51.350;11.102;2022-11-22T06:08:42;98229.81;;;6.78;72.55
27805;BME280;15183;51.350;11.102;2022-11-22T06:11:22;98197.69;;;6.59;72.57
27805;BME280;15183;51.350;11.102;2022-11-22T06:13:58;98243.84;;;6.84;72.64
27805;BME280;15183;51.350;11.102;2022-11-22T06:16:26;98225.34;;;6.79;72.69
27805;BME280;15183;51.350;11.102;2022-11-22T06:18:53;98187.81;;;6.49;72.71
27805;BME280;15183;51.350;11.102;2022-11-22T06:21:23;98228.31;;;6.83;72.62
27805;BME280;15183;51.350;11.102;2022-11-22T06:23:53;98238.66;;;6.89;72.79
27805;BME280;15183;51.350;11.102;2022-11-22T06:26:22;98232.63;;;6.89;72.40
27805;BME280;15183;51.350;11.102;2022-11-22T06:28:49;98259.72;;;7.06;72.32
27805;BME280;15183;51.350;11.102;2022-11-22T06:31:24;98248.56;;;6.99;72.35
27805;BME280;15183;51.350;11.102;2022-11-22T06:33:56;98264.97;;;7.06;72.65
27805;BME280;15183;51.350;11.102;2022-11-22T06:36:30;98254.59;;;7.00;72.69
27805;BME280;15183;51.350;11.102;2022-11-22T06:38:57;98255.41;;;7.00;72.40
27805;BME280;15183;51.350;11.102;2022-11-22T06:41:26;98226.41;;;6.78;72.53
27805;BME280;15183;51.350;11.102;2022-11-22T06:43:54;98281.41;;;7.14;72.35
27805;BME280;15183;51.350;11.102;2022-11-22T06:46:25;98289.22;;;7.26;72.58
27805;BME280;15183;51.350;11.102;2022-11-22T06:48:52;98224.06;;;6.81;72.55
27805;BME280;15183;51.350;11.102;2022-11-22T06:51:26;98273.88;;;7.22;72.88
27805;BME280;15183;51.350;11.102;2022-11-22T06:53:55;98282.34;;;7.24;72.20
27805;BME280;15183;51.350;11.102;2022-11-22T06:56:36;98273.72;;;7.29;72.57
27805;BME280;15183;51.350;11.102;2022-11-22T06:59:04;98304.97;;;7.43;72.37
27805;BME280;15183;51.350;11.102;2022-11-22T07:01:33;98242.78;;;7.02;72.66
27805;BME280;15183;51.350;11.102;2022-11-22T07:04:01;98252.63;;;7.07;72.72
27805;BME280;15183;51.350;11.102;2022-11-22T07:06:30;98238.25;;;6.98;72.39
27805;BME280;15183;51.350;11.102;2022-11-22T07:08:59;98296.28;;;7.42;72.34
27805;BME280;15183;51.350;11.102;2022-11-22T07:11:28;98266.53;;;7.24;72.22
27805;BME280;15183;51.350;11.102;2022-11-22T07:13:57;98279.84;;;7.35;71.95
27805;BME280;15183;51.350;11.102;2022-11-22T07:16:24;98266.56;;;7.07;71.60
27805;BME280;15183;51.350;11.102;2022-11-22T07:18:50;98307.41;;;7.27;71.96
27805;BME280;15183;51.350;11.102;2022-11-22T07:21:21;98307.03;;;7.18;72.48
27805;BME280;15183;51.350;11.102;2022-11-22T07:23:51;98279.03;;;6.95;72.26
27805;BME280;15183;51.350;11.102;2022-11-22T07:26:20;98312.69;;;7.10;72.46
27805;BME280;15183;51.350;11.102;2022-11-22T07:28:47;98299.22;;;6.89;72.72
27805;BME280;15183;51.350;11.102;2022-11-22T07:31:15;98278.22;;;6.77;72.44
27805;BME280;15183;51.350;11.102;2022-11-22T07:33:42;98298.81;;;6.80;72.80
27805;BME280;15183;51.350;11.102;2022-11-22T07:36:17;98304.31;;;6.79;72.65
27805;BME280;15183;51.350;11.102;2022-11-22T07:38:44;98326.09;;;6.91;73.04
27805;BME280;15183;51.350;11.102;2022-11-22T07:41:13;98339.59;;;6.95;73.12
27805;BME280;15183;51.350;11.102;2022-11-22T07:43:40;98252.47;;;6.45;72.99
27805;BME280;15183;51.350;11.102;2022-11-22T07:48:40;98332.16;;;7.09;73.11
27805;BME280;15183;51.350;11.102;2022-11-22T07:51:07;98255.97;;;6.68;72.85
27805;BME280;15183;51.350;11.102;2022-11-22T07:53:34;98311.41;;;7.13;73.18
27805;BME280;15183;51.350;11.102;2022-11-22T07:56:05;98234.16;;;6.68;73.07
27805;BME280;15183;51.350;11.102;2022-11-22T07:58:32;98312.63;;;7.22;72.83
27805;BME280;15183;51.350;11.102;2022-11-22T08:01:08;98306.59;;;7.27;73.07
27805;BME280;15183;51.350;11.102;2022-11-22T08:03:35;98304.03;;;7.32;73.08
27805;BME280;15183;51.350;11.102;2022-11-22T08:06:04;98297.00;;;7.37;72.89
27805;BME280;15183;51.350;11.102;2022-11-22T08:08:32;98305.91;;;7.53;73.19
27805;BME280;15183;51.350;11.102;2022-11-22T08:10:58;98320.09;;;7.70;73.59
27805;BME280;15183;51.350;11.102;2022-11-22T08:13:25;98308.81;;;7.74;72.80
27805;BME280;15183;51.350;11.102;2022-11-22T08:15:52;98263.38;;;7.45;73.27
27805;BME280;15183;51.350;11.102;2022-11-22T08:18:19;98343.78;;;8.09;72.61
27805;BME280;15183;51.350;11.102;2022-11-22T08:20:46;98322.56;;;7.99;72.98
27805;BME280;15183;51.350;11.102;2022-11-22T08:23:12;98352.84;;;8.18;72.91
27805;BME280;15183;51.350;11.102;2022-11-22T08:25:39;98369.28;;;8.25;72.66
27805;BME280;15183;51.350;11.102;2022-11-22T08:28:05;98355.25;;;8.20;72.64
27805;BME280;15183;51.350;11.102;2022-11-22T08:30:31;98344.25;;;8.06;72.50
27805;BME280;15183;51.350;11.102;2022-11-22T08:32:59;98359.00;;;8.02;71.47
27805;BME280;15183;51.350;11.102;2022-11-22T08:35:25;98352.66;;;7.80;71.95
27805;BME280;15183;51.350;11.102;2022-11-22T08:37:56;98367.75;;;7.85;72.09
27805;BME280;15183;51.350;11.102;2022-11-22T08:40:22;98359.69;;;7.75;72.61
27805;BME280;15183;51.350;11.102;2022-11-22T08:42:53;98357.56;;;7.72;72.41
27805;BME280;15183;51.350;11.102;2022-11-22T08:45:23;98313.78;;;7.31;73.01
27805;BME280;15183;51.350;11.102;2022-11-22T08:47:50;98305.97;;;7.36;73.38
27805;BME280;15183;51.350;11.102;2022-11-22T08:50:20;98402.28;;;8.06;73.47
27805;BME280;15183;51.350;11.102;2022-11-22T08:52:46;98406.41;;;8.19;73.02
27805;BME280;15183;51.350;11.102;2022-11-22T08:55:13;98384.22;;;8.15;72.34
27805;BME280;15183;51.350;11.102;2022-11-22T08:57:39;98386.09;;;8.19;72.60
27805;BME280;15183;51.350;11.102;2022-11-22T09:00:09;98363.84;;;8.10;73.10
27805;BME280;15183;51.350;11.102;2022-11-22T09:02:36;98325.59;;;7.90;73.02
27805;BME280;15183;51.350;11.102;2022-11-22T09:05:03;98387.06;;;8.58;73.50
27805;BME280;15183;51.350;11.102;2022-11-22T09:07:30;98363.75;;;8.49;73.78
27805;BME280;15183;51.350;11.102;2022-11-22T09:09:56;98393.06;;;8.75;73.42
27805;BME280;15183;51.350;11.102;2022-11-22T09:12:22;98419.09;;;8.94;73.37
27805;BME280;15183;51.350;11.102;2022-11-22T09:14:49;98372.88;;;8.64;73.17
27805;BME280;15183;51.350;11.102;2022-11-22T09:17:15;98398.38;;;8.80;73.10
27805;BME280;15183;51.350;11.102;2022-11-22T09:19:48;98404.56;;;8.91;73.17
27805;BME280;15183;51.350;11.102;2022-11-22T09:22:16;98385.94;;;8.76;73.25
27805;BME280;15183;51.350;11.102;2022-11-22T09:24:43;98403.03;;;8.95;73.50
27805;BME280;15183;51.350;11.102;2022-11-22T09:27:10;98398.88;;;9.05;73.03
27805;BME280;15183;51.350;11.102;2022-11-22T09:29:36;98365.81;;;9.02;72.83
27805;BME280;15183;51.350;11.102;2022-11-22T09:32:03;98439.94;;;9.50;72.68
27805;BME280;15183;51.350;11.102;2022-11-22T09:34:33;98438.38;;;9.54;72.43
27805;BME280;15183;51.350;11.102;2022-11-22T09:37:05;98420.38;;;9.51;72.44
27805;BME280;15183;51.350;11.102;2022-11-22T09:39:31;98372.34;;;9.27;72.21
27805;BME280;15183;51.350;11.102;2022-11-22T09:48:41;98422.94;;;9.84;72.99
27805;BME280;15183;51.350;11.102;2022-11-22T09:51:28;98426.75;;;9.98;73.32
27805;BME280;15183;51.350;11.102;2022-11-22T09:54:19;98436.34;;;10.20;73.38
27805;BME280;15183;51.350;11.102;2022-11-22T09:56:50;98436.16;;;10.32;73.09
27805;BME280;15183;51.350;11.102;2022-11-22T09:59:22;98373.03;;;9.98;72.49
27805;BME280;15183;51.350;11.102;2022-11-22T10:02:18;98402.22;;;10.13;72.74
27805;BME280;15183;51.350;11.102;2022-11-22T10:04:59;98404.31;;;10.11;72.55
27805;BME280;15183;51.350;11.102;2022-11-22T10:07:36;98422.91;;;10.32;72.70
27805;BME280;15183;51.350;11.102;2022-11-22T10:10:45;98414.22;;;10.37;73.13
27805;BME280;15183;51.350;11.102;2022-11-22T10:13:33;98388.72;;;10.20;72.88
27805;BME280;15183;51.350;11.102;2022-11-22T10:16:21;98402.28;;;10.39;73.01
27805;BME280;15183;51.350;11.102;2022-11-22T10:19:03;98421.16;;;10.53;72.60
27805;BME280;15183;51.350;11.102;2022-11-22T10:21:35;98431.28;;;10.72;72.99
27805;BME280;15183;51.350;11.102;2022-11-22T10:24:01;98430.78;;;10.75;72.55
27805;BME280;15183;51.350;11.102;2022-11-22T10:26:38;98376.06;;;10.33;72.54
27805;BME280;15183;51.350;11.102;2022-11-22T10:35:09;98405.28;;;10.59;71.88
27805;BME280;15183;51.350;11.102;2022-11-22T10:38:07;98418.81;;;10.62;72.31
27805;BME280;15183;51.350;11.102;2022-11-22T10:41:00;98399.97;;;10.43;72.32
27805;BME280;15183;51.350;11.102;2022-11-22T10:43:37;98421.19;;;10.59;72.85
27805;BME280;15183;51.350;11.102;2022-11-22T10:55:36;98418.59;;;10.79;72.15
27805;BME280;15183;51.350;11.102;2022-11-22T11:04:33;98404.28;;;10.80;72.39
27805;BME280;15183;51.350;11.102;2022-11-22T11:07:03;98419.13;;;10.92;72.22
27805;BME280;15183;51.350;11.102;2022-11-22T11:09:40;98387.03;;;10.78;72.56
27805;BME280;15183;51.350;11.102;2022-11-22T11:15:37;98413.59;;;11.04;72.13
27805;BME280;15183;51.350;11.102;2022-11-22T11:18:07;98365.84;;;10.78;71.29
27805;BME280;15183;51.350;11.102;2022-11-22T11:20:41;98396.34;;;10.91;71.95
27805;BME280;15183;51.350;11.102;2022-11-22T11:23:09;98378.31;;;10.77;71.49
27805;BME280;15183;51.350;11.102;2022-11-22T11:25:39;98344.13;;;10.50;71.32
27805;BME280;15183;51.350;11.102;2022-11-22T11:28:22;98364.25;;;10.66;71.30
27805;BME280;15183;51.350;11.102;2022-11-22T11:31:15;98395.81;;;10.83;71.18
27805;BME280;15183;51.350;11.102;2022-11-22T11:33:45;98410.94;;;11.04;71.53
27805;BME280;15183;51.350;11.102;2022-11-22T11:36:23;98371.69;;;10.75;71.43
27805;BME280;15183;51.350;11.102;2022-11-22T11:38:56;98411.75;;;11.04;71.38
27805;BME280;15183;51.350;11.102;2022-11-22T11:41:33;98384.69;;;10.86;70.79
27805;BME280;15183;51.350;11.102;2022-11-22T11:44:03;98392.09;;;10.84;70.64
27805;BME280;15183;51.350;11.102;2022-11-22T11:49:15;98346.38;;;10.15;69.76
27805;BME280;15183;51.350;11.102;2022-11-22T11:52:06;98408.41;;;10.40;70.16
27805;BME280;15183;51.350;11.102;2022-11-22T11:54:41;98362.72;;;9.96;69.88
27805;BME280;15183;51.350;11.102;2022-11-22T11:57:14;98395.78;;;9.99;69.67
27805;BME280;15183;51.350;11.102;2022-11-22T11:59:43;98415.13;;;10.05;70.34
27805;BME280;15183;51.350;11.102;2022-11-22T12:02:38;98366.28;;;9.75;70.70
27805;BME280;15183;51.350;11.102;2022-11-22T12:07:46;98362.72;;;9.48;70.96
27805;BME280;15183;51.350;11.102;2022-11-22T12:10:43;98387.34;;;9.54;70.32
27805;BME280;15183;51.350;11.102;2022-11-22T12:13:37;98400.34;;;9.66;70.92
27805;BME280;15183;51.350;11.102;2022-11-22T12:16:36;98324.59;;;9.01;71.04
27805;BME280;15183;51.350;11.102;2022-11-22T12:19:14;98363.84;;;9.20;71.37
27805;BME280;15183;51.350;11.102;2022-11-22T12:30:42;98425.72;;;9.24;71.42
27805;BME280;15183;51.350;11.102;2022-11-22T12:33:19;98416.03;;;9.07;71.28
27805;BME280;15183;51.350;11.102;2022-11-22T12:35:49;98400.03;;;8.87;71.58
27805;BME280;15183;51.350;11.102;2022-11-22T12:38:41;98407.50;;;8.95;71.39
27805;BME280;15183;51.350;11.102;2022-11-22T12:41:12;98409.09;;;8.96;71.70
27805;BME280;15183;51.350;11.102;2022-11-22T12:46:24;98424.97;;;9.01;71.73
27805;BME280;15183;51.350;11.102;2022-11-22T12:49:17;98426.84;;;9.01;72.01
27805;BME280;15183;51.350;11.102;2022-11-22T12:52:11;98428.94;;;8.98;71.89
27805;BME280;15183;51.350;11.102;2022-11-22T12:57:23;98400.81;;;8.87;72.50
27805;BME280;15183;51.350;11.102;2022-11-22T13:05:23;98414.41;;;9.01;72.95
27805;BME280;15183;51.350;11.102;2022-11-22T13:11:12;98423.97;;;9.07;72.29
27805;BME280;15183;51.350;11.102;2022-11-22T13:13:49;98401.13;;;8.91;72.51
27805;BME280;15183;51.350;11.102;2022-11-22T13:16:18;98350.69;;;8.65;72.48
27805;BME280;15183;51.350;11.102;2022-11-22T13:18:57;98392.34;;;8.85;72.08
27805;BME280;15183;51.350;11.102;2022-11-22T13:27:46;98425.38;;;8.88;72.67
27805;BME280;15183;51.350;11.102;2022-11-22T13:30:24;98329.16;;;8.23;71.98
27805;BME280;15183;51.350;11.102;2022-11-22T13:32:54;98394.53;;;8.66;72.09
27805;BME280;15183;51.350;11.102;2022-11-22T13:35:27;98409.88;;;8.69;71.93
27805;BME280;15183;51.350;11.102;2022-11-22T13:38:17;98390.34;;;8.48;71.97
27805;BME280;15183;51.350;11.102;2022-11-22T13:40:48;98379.75;;;8.43;72.74
27805;BME280;15183;51.350;11.102;2022-11-22T13:45:50;98409.59;;;8.65;72.52
27805;BME280;15183;51.350;11.102;2022-11-22T13:51:07;98365.19;;;8.35;72.44
27805;BME280;15183;51.350;11.102;2022-11-22T13:53:37;98401.41;;;8.67;72.76
27805;BME280;15183;51.350;11.102;2022-11-22T13:59:12;98403.56;;;8.70;72.53
27805;BME280;15183;51.350;11.102;2022-11-22T14:12:15;98390.94;;;8.72;72.88
27805;BME280;15183;51.350;11.102;2022-11-22T14:21:48;98387.56;;;8.54;72.98
27805;BME280;15183;51.350;11.102;2022-11-22T14:25:12;98359.63;;;8.36;72.72
27805;BME280;15183;51.350;11.102;2022-11-22T14:27:50;98400.22;;;8.52;72.69
27805;BME280;15183;51.350;11.102;2022-11-22T14:30:22;98273.97;;;7.72;72.26
27805;BME280;15183;51.350;11.102;2022-11-22T14:33:05;98390.16;;;8.49;71.94
27805;BME280;15183;51.350;11.102;2022-11-22T14:38:41;98388.28;;;8.28;71.70
27805;BME280;15183;51.350;11.102;2022-11-22T14:44:02;98359.47;;;7.99;71.60
27805;BME280;15183;51.350;11.102;2022-11-22T14:46:35;98372.91;;;7.97;72.12
27805;BME280;15183;51.350;11.102;2022-11-22T14:51:56;98380.13;;;7.85;71.52
27805;BME280;15183;51.350;11.102;2022-11-22T14:54:46;98403.28;;;8.00;71.64
27805;BME280;15183;51.350;11.102;2022-11-22T14:57:21;98368.31;;;7.70;71.59
27805;BME280;15183;51.350;11.102;2022-11-22T15:00:19;98395.41;;;7.82;71.63
27805;BME280;15183;51.350;11.102;2022-11-22T15:11:21;98426.09;;;7.72;71.33
27805;BME280;15183;51.350;11.102;2022-11-22T15:16:51;98427.31;;;7.47;71.14
27805;BME280;15183;51.350;11.102;2022-11-22T15:19:37;98423.31;;;7.44;71.21
27805;BME280;15183;51.350;11.102;2022-11-22T15:22:12;98400.38;;;7.10;71.32
27805;BME280;15183;51.350;11.102;2022-11-22T15:24:53;98401.63;;;7.20;71.36